Decoded Metar for TNCM (PHILIPSBURG in ANTILLES) (IATA:SXM) | Meteo·Mobile Aviation Weather
aviador You're here:

TNCM Decoded Metar

PHILIPSBURG in ANTILLES
Report Time2018-09-19 16:00:00
UTC Time2018-09-19 16:22:29
Flight Rules vfr VFR
Wind100° at 15 kt
W.Decomp.*RWY 10: 14.6 kt HW 3.6 kt RCW
W.Rank100° ranks 3
Current wind is above 100° avg. (9.2)
Visibility9999 m
Phenomena:Haze
Clouds:Scattered 020 Hf
Expected CloudBase > 3,200 ft AGL from Temp-Dew spread
CeilingNone
Temp32°C (ISA +17)
Dew Point24°C (63% RH)
Heat Index38.0°C
QNH1016 hPa
Density Alt2,247 ft
Elevation13 ft
Report Wrong Elevation
Raw Report
TNCM 191600Z 10015KT 080V150 9999 SCT020 32/24 Q1016 A3001 NOSIG
RMK HZ ALQDS=

Extra information for TNCM:More info

Metar Taf Metar & Taf Last 4 Metars F.Rules Stats Wind Profile Meteogram Temp Stats Airport Information Weather charts Add Link Nearby VenuesMetar ALERT Operation Metar Decoded Social comments